createdAt,value
2016-12-06T00:00:50.208Z,1045.07
2016-12-06T00:01:50.192Z,1045.07
2016-12-06T00:02:50.177Z,1045.05
2016-12-06T00:03:50.161Z,1045.07
2016-12-06T00:04:50.146Z,1045.05
2016-12-06T00:05:50.129Z,1045.08
2016-12-06T00:06:50.114Z,1045.09
2016-12-06T00:07:50.100Z,1045.02
2016-12-06T00:08:50.084Z,1045
2016-12-06T00:09:50.068Z,1044.99
2016-12-06T00:10:50.054Z,1044.94
2016-12-06T00:11:50.037Z,1044.89
2016-12-06T00:12:50.023Z,1044.82
2016-12-06T00:13:50.007Z,1044.82
2016-12-06T00:14:49.992Z,1044.81
2016-12-06T00:15:49.977Z,1044.81
2016-12-06T00:16:49.963Z,1044.86
2016-12-06T00:17:49.950Z,1044.83
2016-12-06T00:18:49.932Z,1044.81
2016-12-06T00:19:49.917Z,1044.82
2016-12-06T00:20:49.905Z,1044.84
2016-12-06T00:21:49.890Z,1044.88
2016-12-06T00:22:49.873Z,1044.82
2016-12-06T00:23:49.859Z,1044.82
2016-12-06T00:24:49.842Z,1044.79
2016-12-06T00:25:49.826Z,1044.79
2016-12-06T00:26:49.812Z,1044.75
2016-12-06T00:27:49.797Z,1044.73
2016-12-06T00:28:49.785Z,1044.7
2016-12-06T00:29:49.767Z,1044.7
2016-12-06T00:30:49.755Z,1044.73
2016-12-06T00:31:49.740Z,1044.76
2016-12-06T00:32:49.723Z,1044.78
2016-12-06T00:33:49.708Z,1044.78
2016-12-06T00:34:49.697Z,1044.83
2016-12-06T00:35:49.681Z,1044.83
2016-12-06T00:36:49.663Z,1044.85
2016-12-06T00:37:49.650Z,1044.82
2016-12-06T00:38:49.634Z,1044.84
2016-12-06T00:39:49.622Z,1044.86
2016-12-06T00:40:49.606Z,1044.85
2016-12-06T00:41:49.591Z,1044.85
2016-12-06T00:42:49.578Z,1044.85
2016-12-06T00:43:49.562Z,1044.82
2016-12-06T00:44:49.547Z,1044.88
2016-12-06T00:45:49.530Z,1044.87
2016-12-06T00:46:49.516Z,1044.83
2016-12-06T00:47:49.502Z,1044.79
2016-12-06T00:48:49.488Z,1044.82
2016-12-06T00:49:49.472Z,1044.8
2016-12-06T00:50:49.463Z,1044.82
2016-12-06T00:51:49.443Z,1044.82
2016-12-06T00:52:49.426Z,1044.83
2016-12-06T00:53:49.414Z,1044.81
2016-12-06T00:54:49.401Z,1044.81
2016-12-06T00:55:49.384Z,1044.79
2016-12-06T00:56:49.367Z,1044.8
2016-12-06T00:57:49.353Z,1044.7
2016-12-06T00:58:49.337Z,1044.68
2016-12-06T00:59:49.323Z,1044.69
2016-12-06T01:00:49.308Z,1044.65
2016-12-06T01:01:49.296Z,1044.62
2016-12-06T01:02:49.279Z,1044.62
2016-12-06T01:03:49.265Z,1044.63
2016-12-06T01:04:49.250Z,1044.62
2016-12-06T01:05:49.238Z,1044.66
2016-12-06T01:06:49.220Z,1044.65
2016-12-06T01:07:49.206Z,1044.65
2016-12-06T01:08:49.192Z,1044.7
2016-12-06T01:09:49.178Z,1044.64
2016-12-06T01:10:49.162Z,1044.66
2016-12-06T01:11:49.147Z,1044.69
2016-12-06T01:12:49.136Z,1044.63
2016-12-06T01:13:49.122Z,1044.65
2016-12-06T01:14:49.103Z,1044.68
2016-12-06T01:15:49.090Z,1044.71
2016-12-06T01:16:49.077Z,1044.71
2016-12-06T01:17:49.059Z,1044.72
2016-12-06T01:18:49.045Z,1044.71
2016-12-06T01:19:49.033Z,1044.75
2016-12-06T01:20:49.018Z,1044.71
2016-12-06T01:21:49.001Z,1044.75
2016-12-06T01:22:48.990Z,1044.73
2016-12-06T01:23:48.973Z,1044.75
2016-12-06T01:24:48.958Z,1044.76
2016-12-06T01:25:48.943Z,1044.74
2016-12-06T01:26:48.931Z,1044.68
2016-12-06T01:27:48.918Z,1044.62
2016-12-06T01:28:48.901Z,1044.57
2016-12-06T01:29:48.887Z,1044.59
2016-12-06T01:30:48.874Z,1044.5
2016-12-06T01:31:48.858Z,1044.46
2016-12-06T01:32:48.843Z,1044.42
2016-12-06T01:33:48.828Z,1044.42
2016-12-06T01:34:48.814Z,1044.4
2016-12-06T01:35:48.800Z,1044.39
2016-12-06T01:36:48.787Z,1044.44
2016-12-06T01:37:48.773Z,1044.48
2016-12-06T01:38:48.759Z,1044.49
2016-12-06T01:39:48.744Z,1044.51
2016-12-06T01:40:48.728Z,1044.54
2016-12-06T01:41:48.714Z,1044.51
2016-12-06T01:42:48.699Z,1044.55
2016-12-06T01:43:48.687Z,1044.56
2016-12-06T01:44:48.671Z,1044.57
2016-12-06T01:45:48.658Z,1044.62
2016-12-06T01:46:48.642Z,1044.68
2016-12-06T01:47:48.629Z,1044.62
2016-12-06T01:48:48.616Z,1044.58
2016-12-06T01:49:48.602Z,1044.59
2016-12-06T01:50:48.588Z,1044.59
2016-12-06T01:51:48.572Z,1044.58
2016-12-06T01:52:48.558Z,1044.56
2016-12-06T01:53:48.545Z,1044.55
2016-12-06T01:54:48.530Z,1044.54
2016-12-06T01:55:48.515Z,1044.58
2016-12-06T01:56:48.501Z,1044.65
2016-12-06T01:57:48.488Z,1044.72
2016-12-06T01:58:48.473Z,1044.78
2016-12-06T01:59:48.461Z,1044.79
2016-12-06T02:00:48.445Z,1044.86
2016-12-06T02:01:48.432Z,1044.82
2016-12-06T02:02:48.417Z,1044.79
2016-12-06T02:03:48.402Z,1044.87
2016-12-06T02:04:48.389Z,1044.89
2016-12-06T02:05:48.375Z,1044.86
2016-12-06T02:06:48.359Z,1044.85
2016-12-06T02:07:48.346Z,1044.82
2016-12-06T02:08:48.332Z,1044.83
2016-12-06T02:09:48.319Z,1044.82
2016-12-06T02:10:48.303Z,1044.78
2016-12-06T02:11:48.289Z,1044.78
2016-12-06T02:12:48.273Z,1044.74
2016-12-06T02:13:48.259Z,1044.7
2016-12-06T02:14:48.244Z,1044.73
2016-12-06T02:15:48.231Z,1044.73
2016-12-06T02:16:48.218Z,1044.7
2016-12-06T02:17:48.201Z,1044.71
2016-12-06T02:18:48.190Z,1044.72
2016-12-06T02:19:48.172Z,1044.72
2016-12-06T02:20:48.161Z,1044.71
2016-12-06T02:21:48.144Z,1044.75
2016-12-06T02:22:48.129Z,1044.69
2016-12-06T02:23:48.118Z,1044.75
2016-12-06T02:24:48.103Z,1044.82
2016-12-06T02:25:48.088Z,1044.82
2016-12-06T02:26:48.072Z,1044.92
2016-12-06T02:27:48.058Z,1044.93
2016-12-06T02:28:48.045Z,1044.91
2016-12-06T02:29:48.031Z,1044.93
2016-12-06T02:30:48.016Z,1044.89
2016-12-06T02:31:48.004Z,1044.95
2016-12-06T02:32:47.990Z,1044.93
2016-12-06T02:33:47.972Z,1044.97
2016-12-06T02:34:47.958Z,1044.99
2016-12-06T02:35:47.947Z,1044.98
2016-12-06T02:36:47.932Z,1045.02
2016-12-06T02:37:47.917Z,1045.01
2016-12-06T02:38:47.902Z,1045.05
2016-12-06T02:39:47.890Z,1045.08
2016-12-06T02:40:47.873Z,1045.11
2016-12-06T02:41:47.861Z,1045.06
2016-12-06T02:42:47.844Z,1045.1
2016-12-06T02:43:47.830Z,1045.08
2016-12-06T02:44:47.815Z,1045.11
2016-12-06T02:45:47.803Z,1045.07
2016-12-06T02:46:47.788Z,1045.04
2016-12-06T02:47:47.774Z,1045
2016-12-06T02:48:47.760Z,1044.99
2016-12-06T02:49:47.743Z,1044.9
2016-12-06T02:50:47.732Z,1044.9
2016-12-06T02:51:47.715Z,1044.91
2016-12-06T02:52:47.700Z,1044.88
2016-12-06T02:53:47.688Z,1044.89
2016-12-06T02:54:47.673Z,1044.91
2016-12-06T02:55:47.659Z,1044.92
2016-12-06T02:56:47.652Z,1044.97
2016-12-06T02:57:47.629Z,1044.93
2016-12-06T02:58:47.617Z,1045
2016-12-06T02:59:47.602Z,1045.08
2016-12-06T03:00:47.587Z,1045.1
2016-12-06T03:01:47.571Z,1045.13
2016-12-06T03:02:47.559Z,1045.08
2016-12-06T03:03:47.542Z,1045.08
2016-12-06T03:04:47.529Z,1045.04
2016-12-06T03:05:47.516Z,1045.02
2016-12-06T03:06:47.499Z,1044.93
2016-12-06T03:07:47.485Z,1044.9
2016-12-06T03:08:47.472Z,1044.87
2016-12-06T03:09:47.456Z,1044.87
2016-12-06T03:10:47.443Z,1044.81
2016-12-06T03:11:47.427Z,1044.84
2016-12-06T03:12:47.413Z,1044.88
2016-12-06T03:13:47.401Z,1044.87
2016-12-06T03:14:47.387Z,1044.87
2016-12-06T03:15:47.370Z,1044.88
2016-12-06T03:16:47.359Z,1044.82
2016-12-06T03:17:47.341Z,1044.8
2016-12-06T03:18:47.329Z,1044.8
2016-12-06T03:19:47.313Z,1044.83
2016-12-06T03:20:47.301Z,1044.86
2016-12-06T03:21:47.287Z,1044.87
2016-12-06T03:22:47.272Z,1044.85
2016-12-06T03:23:47.258Z,1044.86
2016-12-06T03:24:47.245Z,1044.87
2016-12-06T03:25:47.231Z,1044.86
2016-12-06T03:26:47.215Z,1044.91
2016-12-06T03:27:47.203Z,1044.88
2016-12-06T03:28:47.188Z,1044.83
2016-12-06T03:29:47.173Z,1044.77
2016-12-06T03:30:47.158Z,1044.74
2016-12-06T03:31:47.146Z,1044.74
2016-12-06T03:32:47.130Z,1044.71
2016-12-06T03:33:47.117Z,1044.77
2016-12-06T03:34:47.102Z,1044.76
2016-12-06T03:35:47.089Z,1044.79
2016-12-06T03:36:47.073Z,1044.83
2016-12-06T03:37:47.060Z,1044.8
2016-12-06T03:38:47.045Z,1044.69
2016-12-06T03:39:47.030Z,1044.75
2016-12-06T03:40:47.018Z,1044.77
2016-12-06T03:41:47.004Z,1044.78
2016-12-06T03:42:46.990Z,1044.81
2016-12-06T03:43:46.975Z,1044.77
2016-12-06T03:44:46.961Z,1044.85
2016-12-06T03:45:46.948Z,1044.83
2016-12-06T03:46:46.932Z,1044.78
2016-12-06T03:47:46.919Z,1044.73
2016-12-06T03:48:46.903Z,1044.74
2016-12-06T03:49:46.889Z,1044.71
2016-12-06T03:50:46.874Z,1044.72
2016-12-06T03:51:46.860Z,1044.66
2016-12-06T03:52:46.849Z,1044.65
2016-12-06T03:53:46.832Z,1044.65
2016-12-06T03:54:46.821Z,1044.68
2016-12-06T03:55:46.804Z,1044.66
2016-12-06T03:56:46.792Z,1044.66
2016-12-06T03:57:46.775Z,1044.76
2016-12-06T03:58:46.761Z,1044.75
2016-12-06T03:59:46.749Z,1044.81
2016-12-06T04:00:46.735Z,1044.79
2016-12-06T04:01:46.718Z,1044.81
2016-12-06T04:02:46.704Z,1044.77
2016-12-06T04:03:46.693Z,1044.78
2016-12-06T04:04:46.678Z,1044.8
2016-12-06T04:05:46.661Z,1044.85
2016-12-06T04:06:46.647Z,1044.85
2016-12-06T04:07:46.636Z,1044.9
2016-12-06T04:08:46.619Z,1044.89
2016-12-06T04:09:46.605Z,1044.88
2016-12-06T04:10:46.592Z,1044.85
2016-12-06T04:11:46.579Z,1044.88
2016-12-06T04:12:46.563Z,1044.85
2016-12-06T04:13:46.549Z,1044.88
2016-12-06T04:14:46.535Z,1044.83
2016-12-06T04:15:46.520Z,1044.87
2016-12-06T04:16:46.506Z,1044.86
2016-12-06T04:17:46.494Z,1044.93
2016-12-06T04:18:46.478Z,1044.84
2016-12-06T04:19:46.463Z,1044.87
2016-12-06T04:20:46.451Z,1044.87
2016-12-06T04:21:46.435Z,1044.9
2016-12-06T04:22:46.424Z,1044.91
2016-12-06T04:23:46.406Z,1044.89
2016-12-06T04:24:46.394Z,1044.79
2016-12-06T04:25:46.380Z,1044.87
2016-12-06T04:26:46.367Z,1044.85
2016-12-06T04:27:46.350Z,1044.85
2016-12-06T04:28:46.336Z,1044.87
2016-12-06T04:29:46.321Z,1044.92
2016-12-06T04:30:46.307Z,1044.88
2016-12-06T04:31:46.294Z,1044.83
2016-12-06T04:32:46.280Z,1044.84
2016-12-06T04:33:46.266Z,1044.83
2016-12-06T04:34:46.251Z,1044.83
2016-12-06T04:35:46.238Z,1044.8
2016-12-06T04:36:46.222Z,1044.83
2016-12-06T04:37:46.208Z,1044.85
2016-12-06T04:38:46.193Z,1044.79
2016-12-06T04:39:46.181Z,1044.76
2016-12-06T04:40:46.166Z,1044.74
2016-12-06T04:41:46.153Z,1044.7
2016-12-06T04:42:46.139Z,1044.74
2016-12-06T04:43:46.123Z,1044.65
2016-12-06T04:44:46.110Z,1044.69
2016-12-06T04:45:46.094Z,1044.66
2016-12-06T04:46:46.081Z,1044.63
2016-12-06T04:47:46.069Z,1044.59
2016-12-06T04:48:46.055Z,1044.65
2016-12-06T04:49:46.039Z,1044.67
2016-12-06T04:50:46.027Z,1044.67
2016-12-06T04:51:46.011Z,1044.67
2016-12-06T04:52:45.996Z,1044.71
2016-12-06T04:53:45.983Z,1044.69
2016-12-06T04:54:45.968Z,1044.73
2016-12-06T04:55:45.955Z,1044.72
2016-12-06T04:56:45.943Z,1044.75
2016-12-06T04:57:45.926Z,1044.82
2016-12-06T04:58:45.915Z,1044.85
2016-12-06T04:59:45.901Z,1044.87
2016-12-06T05:00:45.885Z,1044.8
2016-12-06T05:01:45.872Z,1044.74
2016-12-06T05:02:45.860Z,1044.75
2016-12-06T05:03:45.843Z,1044.77
2016-12-06T05:04:45.829Z,1044.79
2016-12-06T05:05:45.818Z,1044.76
2016-12-06T05:06:45.804Z,1044.79
2016-12-06T05:07:45.787Z,1044.79
2016-12-06T05:08:45.773Z,1044.86
2016-12-06T05:09:45.761Z,1044.77
2016-12-06T05:10:45.745Z,1044.77
2016-12-06T05:11:45.733Z,1044.77
2016-12-06T05:12:45.718Z,1044.71
2016-12-06T05:13:45.704Z,1044.71
2016-12-06T05:14:45.692Z,1044.67
2016-12-06T05:15:45.676Z,1044.62
2016-12-06T05:16:45.664Z,1044.57
2016-12-06T05:17:45.649Z,1044.57
2016-12-06T05:18:45.634Z,1044.57
2016-12-06T05:19:45.623Z,1044.54
2016-12-06T05:20:45.607Z,1044.6
2016-12-06T05:21:45.593Z,1044.57
2016-12-06T05:22:45.579Z,1044.53
2016-12-06T05:23:45.566Z,1044.6
2016-12-06T05:24:45.553Z,1044.62
2016-12-06T05:25:45.538Z,1044.66
2016-12-06T05:26:45.525Z,1044.6
2016-12-06T05:27:45.511Z,1044.59
2016-12-06T05:28:45.499Z,1044.58
2016-12-06T05:29:45.483Z,1044.52
2016-12-06T05:30:45.470Z,1044.51
2016-12-06T05:31:45.456Z,1044.5
2016-12-06T05:32:45.444Z,1044.5
2016-12-06T05:33:45.429Z,1044.51
2016-12-06T05:34:45.416Z,1044.57
2016-12-06T05:35:45.405Z,1044.56
2016-12-06T05:36:45.389Z,1044.54
2016-12-06T05:37:45.376Z,1044.56
2016-12-06T05:38:45.363Z,1044.51
2016-12-06T05:39:45.347Z,1044.57
2016-12-06T05:40:45.333Z,1044.54
2016-12-06T05:41:45.320Z,1044.51
2016-12-06T05:42:45.309Z,1044.5
2016-12-06T05:43:45.293Z,1044.48
2016-12-06T05:44:45.279Z,1044.46
2016-12-06T05:45:45.268Z,1044.49
2016-12-06T05:46:45.253Z,1044.5
2016-12-06T05:47:45.238Z,1044.57
2016-12-06T05:48:45.227Z,1044.54
2016-12-06T05:49:45.211Z,1044.62
2016-12-06T05:50:45.201Z,1044.59
2016-12-06T05:51:45.184Z,1044.58
2016-12-06T05:52:45.171Z,1044.58
2016-12-06T05:53:45.159Z,1044.62
2016-12-06T05:54:45.146Z,1044.69
2016-12-06T05:55:45.131Z,1044.7
2016-12-06T05:56:45.117Z,1044.7
2016-12-06T05:57:45.106Z,1044.76
2016-12-06T05:58:45.091Z,1044.83
2016-12-06T05:59:45.079Z,1044.81
2016-12-06T06:00:45.064Z,1044.79
2016-12-06T06:01:45.053Z,1044.84
2016-12-06T06:02:45.036Z,1044.88
2016-12-06T06:03:45.023Z,1044.88
2016-12-06T06:04:45.012Z,1044.88
2016-12-06T06:05:44.998Z,1044.88
2016-12-06T06:06:44.985Z,1044.91
2016-12-06T06:07:44.971Z,1044.97
2016-12-06T06:08:44.956Z,1044.96
2016-12-06T06:09:44.943Z,1044.96
2016-12-06T06:10:44.931Z,1044.98
2016-12-06T06:11:44.916Z,1045.02
2016-12-06T06:12:44.902Z,1045.07
2016-12-06T06:13:44.888Z,1045.05
2016-12-06T06:14:44.875Z,1045.07
2016-12-06T06:15:44.864Z,1045.11
2016-12-06T06:16:44.849Z,1045.23
2016-12-06T06:17:44.836Z,1045.31
2016-12-06T06:18:44.823Z,1045.28
2016-12-06T06:19:44.809Z,1045.25
2016-12-06T06:20:44.795Z,1045.21
2016-12-06T06:21:44.780Z,1045.19
2016-12-06T06:22:44.769Z,1045.13
2016-12-06T06:23:44.756Z,1045.12
2016-12-06T06:24:44.740Z,1045.12
2016-12-06T06:25:44.728Z,1045.08
2016-12-06T06:26:44.713Z,1045.12
2016-12-06T06:27:44.702Z,1045.07
2016-12-06T06:28:44.687Z,1045.04
2016-12-06T06:29:44.676Z,1045.02
2016-12-06T06:30:44.660Z,1045.01
2016-12-06T06:31:44.648Z,1045
2016-12-06T06:32:44.635Z,1044.96
2016-12-06T06:33:44.621Z,1044.97
2016-12-06T06:34:44.608Z,1044.95
2016-12-06T06:35:44.595Z,1044.98
2016-12-06T06:36:44.581Z,1044.99
2016-12-06T06:37:44.568Z,1044.99
2016-12-06T06:38:44.556Z,1045
2016-12-06T06:39:44.544Z,1044.98
2016-12-06T06:40:44.529Z,1044.95
2016-12-06T06:41:44.517Z,1044.98
2016-12-06T06:42:44.501Z,1044.93
2016-12-06T06:43:44.490Z,1044.94
2016-12-06T06:44:44.476Z,1044.9
2016-12-06T06:45:44.463Z,1044.93
2016-12-06T06:46:44.449Z,1044.93
2016-12-06T06:47:44.435Z,1044.91
2016-12-06T06:48:44.425Z,1044.92
2016-12-06T06:49:44.409Z,1044.91
2016-12-06T06:50:44.400Z,1045.03
2016-12-06T06:51:44.384Z,1045.09
2016-12-06T06:52:44.369Z,1045.14
2016-12-06T06:53:44.356Z,1045.24
2016-12-06T06:54:44.345Z,1045.27
2016-12-06T06:55:44.329Z,1045.27
2016-12-06T06:56:44.321Z,1045.28
2016-12-06T06:57:44.304Z,1045.26
2016-12-06T06:58:44.291Z,1045.18
2016-12-06T06:59:44.278Z,1045.21
2016-12-06T07:00:44.265Z,1045.19
2016-12-06T07:01:44.251Z,1045.2
2016-12-06T07:02:44.237Z,1045.16
2016-12-06T07:03:44.225Z,1045.22
2016-12-06T07:04:44.212Z,1045.26
2016-12-06T07:05:44.197Z,1045.3
2016-12-06T07:06:44.184Z,1045.29
2016-12-06T07:07:44.170Z,1045.32
2016-12-06T07:08:44.157Z,1045.35
2016-12-06T07:09:44.144Z,1045.37
2016-12-06T07:10:44.131Z,1045.36
2016-12-06T07:11:44.119Z,1045.34
2016-12-06T07:12:44.104Z,1045.32
2016-12-06T07:13:44.090Z,1045.35
2016-12-06T07:14:44.078Z,1045.35
2016-12-06T07:15:44.068Z,1045.35
2016-12-06T07:16:44.053Z,1045.34
2016-12-06T07:17:44.040Z,1045.34
2016-12-06T07:18:44.023Z,1045.38
2016-12-06T07:19:44.012Z,1045.48
2016-12-06T07:20:44.000Z,1045.53
2016-12-06T07:21:43.986Z,1045.52
2016-12-06T07:22:43.971Z,1045.52
2016-12-06T07:23:43.958Z,1045.45
2016-12-06T07:24:43.945Z,1045.49
2016-12-06T07:25:43.934Z,1045.46
2016-12-06T07:26:43.920Z,1045.46
2016-12-06T07:27:43.907Z,1045.51
2016-12-06T07:28:43.894Z,1045.47
2016-12-06T07:29:43.878Z,1045.52
2016-12-06T07:30:43.867Z,1045.5
2016-12-06T07:31:43.854Z,1045.53
2016-12-06T07:32:43.842Z,1045.51
2016-12-06T07:33:43.826Z,1045.5
2016-12-06T07:34:43.815Z,1045.49
2016-12-06T07:35:43.802Z,1045.56
2016-12-06T07:36:43.787Z,1045.6
2016-12-06T07:37:43.776Z,1045.6
2016-12-06T07:38:43.761Z,1045.52
2016-12-06T07:39:43.750Z,1045.51
2016-12-06T07:40:43.734Z,1045.48
2016-12-06T07:41:43.722Z,1045.43
2016-12-06T07:42:43.711Z,1045.39
2016-12-06T07:43:43.698Z,1045.35
2016-12-06T07:44:43.684Z,1045.3
2016-12-06T07:45:43.669Z,1045.29
2016-12-06T07:46:43.659Z,1045.3
2016-12-06T07:47:43.645Z,1045.25
2016-12-06T07:48:43.630Z,1045.22
2016-12-06T07:49:43.619Z,1045.15
2016-12-06T07:50:43.605Z,1045.13
2016-12-06T07:51:43.594Z,1045.13
2016-12-06T07:52:43.581Z,1045.15
2016-12-06T07:53:43.569Z,1045.15
2016-12-06T07:54:43.554Z,1045.18
2016-12-06T07:55:43.542Z,1045.24
2016-12-06T07:56:43.530Z,1045.31
2016-12-06T07:57:43.516Z,1045.3
2016-12-06T07:58:43.504Z,1045.36
2016-12-06T07:59:43.492Z,1045.33
2016-12-06T08:00:43.480Z,1045.31
2016-12-06T08:01:43.466Z,1045.25
2016-12-06T08:02:43.452Z,1045.22
2016-12-06T08:03:43.441Z,1045.19
2016-12-06T08:04:43.429Z,1045.18
2016-12-06T08:05:43.416Z,1045.21
2016-12-06T08:06:43.404Z,1045.21
2016-12-06T08:07:43.391Z,1045.16
2016-12-06T08:08:43.377Z,1045.16
2016-12-06T08:09:43.364Z,1045.18
2016-12-06T08:10:43.352Z,1045.16
2016-12-06T08:11:43.340Z,1045.12
2016-12-06T08:12:43.328Z,1045.16
2016-12-06T08:13:43.315Z,1045.16
2016-12-06T08:14:43.305Z,1045.14
2016-12-06T08:15:43.290Z,1045.13
2016-12-06T08:16:43.280Z,1045.14
2016-12-06T08:17:43.273Z,1045.16
2016-12-06T08:18:43.255Z,1045.15
2016-12-06T08:19:43.243Z,1045.15
2016-12-06T08:20:43.229Z,1045.11
2016-12-06T08:21:43.216Z,1045.12
2016-12-06T08:22:43.205Z,1045.13
2016-12-06T08:23:43.195Z,1045.01
2016-12-06T08:24:43.179Z,1044.96
2016-12-06T08:25:43.169Z,1044.96
2016-12-06T08:26:43.157Z,1044.96
2016-12-06T08:27:43.144Z,1044.93
2016-12-06T08:28:43.131Z,1044.92
2016-12-06T08:29:43.122Z,1044.95
2016-12-06T08:30:43.109Z,1044.91
2016-12-06T08:31:43.095Z,1044.93
2016-12-06T08:32:43.084Z,1045
2016-12-06T08:33:43.073Z,1044.99
2016-12-06T08:34:43.062Z,1045.05
2016-12-06T08:35:43.048Z,1045.1
2016-12-06T08:36:43.037Z,1045.17
2016-12-06T08:37:43.024Z,1045.23
2016-12-06T08:38:43.012Z,1045.19
2016-12-06T08:39:43.002Z,1045.2
2016-12-06T08:40:42.990Z,1045.23
2016-12-06T08:41:42.978Z,1045.26
2016-12-06T08:42:42.964Z,1045.3
2016-12-06T08:43:42.954Z,1045.32
2016-12-06T08:44:42.940Z,1045.35
2016-12-06T08:45:42.929Z,1045.41
2016-12-06T08:46:42.917Z,1045.47
2016-12-06T08:47:42.904Z,1045.45
2016-12-06T08:48:42.895Z,1045.46
2016-12-06T08:49:42.881Z,1045.53
2016-12-06T08:50:42.871Z,1045.5
2016-12-06T08:51:42.863Z,1045.58
2016-12-06T08:52:42.847Z,1045.64
2016-12-06T08:53:42.835Z,1045.7
2016-12-06T08:54:42.822Z,1045.8
2016-12-06T08:55:42.812Z,1045.86
2016-12-06T08:56:42.800Z,1045.92
2016-12-06T08:57:42.785Z,1045.94
2016-12-06T08:58:42.775Z,1045.96
2016-12-06T08:59:42.762Z,1045.94
2016-12-06T09:00:42.751Z,1045.94
2016-12-06T09:01:42.741Z,1045.91
2016-12-06T09:02:42.726Z,1045.9
2016-12-06T09:03:42.715Z,1045.9
2016-12-06T09:04:42.704Z,1045.91
2016-12-06T09:05:42.692Z,1045.89
2016-12-06T09:06:42.680Z,1045.82
2016-12-06T09:07:42.667Z,1045.76
2016-12-06T09:08:42.654Z,1045.71
2016-12-06T09:09:42.643Z,1045.68
2016-12-06T09:10:42.634Z,1045.64
2016-12-06T09:11:42.620Z,1045.6
2016-12-06T09:12:42.609Z,1045.62
2016-12-06T09:13:42.621Z,1045.63
2016-12-06T09:14:42.584Z,1045.53
2016-12-06T09:15:42.573Z,1045.49
2016-12-06T09:16:42.558Z,1045.47
2016-12-06T09:17:42.548Z,1045.42
2016-12-06T09:18:42.537Z,1045.45
2016-12-06T09:19:42.524Z,1045.41
2016-12-06T09:20:42.512Z,1045.43
2016-12-06T09:21:42.801Z,1045.36
2016-12-06T09:22:42.490Z,1045.37
2016-12-06T09:23:42.476Z,1045.38
2016-12-06T09:24:42.465Z,1045.36
2016-12-06T09:25:42.455Z,1045.32
2016-12-06T09:26:42.441Z,1045.37
2016-12-06T09:27:42.431Z,1045.26
2016-12-06T09:28:42.419Z,1045.29
2016-12-06T09:29:42.407Z,1045.27
2016-12-06T09:30:42.394Z,1045.39
2016-12-06T09:31:42.383Z,1045.44
2016-12-06T09:32:42.373Z,1045.48
2016-12-06T09:33:42.361Z,1045.49
2016-12-06T09:34:42.348Z,1045.46
2016-12-06T09:35:42.338Z,1045.48
2016-12-06T09:36:42.325Z,1045.44
2016-12-06T09:37:42.313Z,1045.42
2016-12-06T09:38:42.304Z,1045.42
2016-12-06T09:39:42.292Z,1045.42
2016-12-06T09:40:42.282Z,1045.43
2016-12-06T09:41:42.270Z,1045.35
2016-12-06T09:42:42.258Z,1045.4
2016-12-06T09:43:42.246Z,1045.37
2016-12-06T09:44:42.236Z,1045.36
2016-12-06T09:45:42.222Z,1045.38
2016-12-06T09:46:42.213Z,1045.41
2016-12-06T09:47:42.202Z,1045.44
2016-12-06T09:48:42.188Z,1045.4
2016-12-06T09:49:42.178Z,1045.43
2016-12-06T09:50:42.168Z,1045.39
2016-12-06T09:51:42.157Z,1045.46
2016-12-06T09:52:42.145Z,1045.46
2016-12-06T09:53:42.133Z,1045.46
2016-12-06T09:54:42.122Z,1045.44
2016-12-06T09:55:42.108Z,1045.35
2016-12-06T09:56:42.097Z,1045.32
2016-12-06T09:57:42.088Z,1045.33
2016-12-06T09:58:42.077Z,1045.37
2016-12-06T09:59:42.064Z,1045.33
2016-12-06T10:00:42.054Z,1045.33
2016-12-06T10:01:42.043Z,1045.34
2016-12-06T10:02:42.032Z,1045.37
2016-12-06T10:03:42.020Z,1045.33
2016-12-06T10:04:42.007Z,1045.35
2016-12-06T10:05:41.998Z,1045.32
2016-12-06T10:06:41.984Z,1045.28
2016-12-06T10:07:41.975Z,1045.28
2016-12-06T10:08:41.964Z,1045.23
2016-12-06T10:09:41.951Z,1045.22
2016-12-06T10:10:41.940Z,1045.22
2016-12-06T10:11:41.930Z,1045.24
2016-12-06T10:12:41.919Z,1045.27
2016-12-06T10:13:41.907Z,1045.26
2016-12-06T10:14:41.894Z,1045.25
2016-12-06T10:15:41.883Z,1045.28
2016-12-06T10:16:41.872Z,1045.29
2016-12-06T10:17:41.863Z,1045.33
2016-12-06T10:18:41.851Z,1045.33
2016-12-06T10:19:41.838Z,1045.29
2016-12-06T10:20:41.831Z,1045.33
2016-12-06T10:21:41.818Z,1045.32
2016-12-06T10:22:41.806Z,1045.34
2016-12-06T10:23:41.794Z,1045.38
2016-12-06T10:24:41.783Z,1045.39
2016-12-06T10:25:41.772Z,1045.37
2016-12-06T10:26:41.762Z,1045.36
2016-12-06T10:27:41.752Z,1045.29
2016-12-06T10:28:41.737Z,1045.31
2016-12-06T10:29:41.731Z,1045.3
2016-12-06T10:30:41.715Z,1045.31
2016-12-06T10:31:41.707Z,1045.34
2016-12-06T10:32:41.695Z,1045.36
2016-12-06T10:33:41.682Z,1045.37
2016-12-06T10:34:41.671Z,1045.35
2016-12-06T10:35:41.663Z,1045.38
2016-12-06T10:36:41.652Z,1045.4
2016-12-06T10:37:41.638Z,1045.43
2016-12-06T10:38:41.628Z,1045.49
2016-12-06T10:39:41.615Z,1045.51
2016-12-06T10:40:41.604Z,1045.44
2016-12-06T10:41:41.594Z,1045.41
2016-12-06T10:42:41.934Z,1045.44
2016-12-06T10:43:41.573Z,1045.45
2016-12-06T10:44:41.560Z,1045.47
2016-12-06T10:45:41.552Z,1045.55
2016-12-06T10:46:41.541Z,1045.56
2016-12-06T10:47:41.526Z,1045.57
2016-12-06T10:48:41.516Z,1045.64
2016-12-06T10:49:41.505Z,1045.67
2016-12-06T10:50:41.495Z,1045.65
2016-12-06T10:51:41.484Z,1045.64
2016-12-06T10:52:41.473Z,1045.61
2016-12-06T10:53:41.461Z,1045.62
2016-12-06T10:54:41.451Z,1045.61
2016-12-06T10:55:41.438Z,1045.59
2016-12-06T10:56:41.428Z,1045.6
2016-12-06T10:57:41.416Z,1045.67
2016-12-06T10:58:41.404Z,1045.71
2016-12-06T10:59:41.393Z,1045.72
2016-12-06T11:00:41.384Z,1045.77
2016-12-06T11:01:41.372Z,1045.78
2016-12-06T11:02:41.360Z,1045.76
2016-12-06T11:03:41.349Z,1045.78
2016-12-06T11:04:41.340Z,1045.83
2016-12-06T11:05:41.325Z,1045.81
2016-12-06T11:06:41.314Z,1045.85
2016-12-06T11:07:41.306Z,1045.87
2016-12-06T11:08:41.295Z,1045.86
2016-12-06T11:09:41.282Z,1045.83
2016-12-06T11:10:41.271Z,1045.9
2016-12-06T11:11:41.259Z,1045.91
2016-12-06T11:12:41.247Z,1045.98
2016-12-06T11:13:41.236Z,1046.01
2016-12-06T11:14:41.225Z,1046.04
2016-12-06T11:15:41.217Z,1046.03
2016-12-06T11:16:41.202Z,1046.02
2016-12-06T11:17:41.193Z,1046.03
2016-12-06T11:18:41.182Z,1046.01
2016-12-06T11:19:41.169Z,1046.02
2016-12-06T11:20:41.158Z,1046.01
2016-12-06T11:21:41.149Z,1046.07
2016-12-06T11:22:41.137Z,1046.1
2016-12-06T11:23:41.125Z,1046.14
2016-12-06T11:24:41.113Z,1046.15
2016-12-06T11:25:41.102Z,1046.14
2016-12-06T11:26:41.092Z,1046.15
2016-12-06T11:27:41.080Z,1046.17
2016-12-06T11:28:41.067Z,1046.13
2016-12-06T11:29:41.056Z,1046.12
2016-12-06T11:30:41.044Z,1046.09
2016-12-06T11:31:41.032Z,1046.04
2016-12-06T11:32:41.022Z,1046.08
2016-12-06T11:33:41.012Z,1046.05
2016-12-06T11:34:40.998Z,1046.09
2016-12-06T11:35:40.988Z,1046.07
2016-12-06T11:36:40.978Z,1046.03
2016-12-06T11:37:40.965Z,1046.04
2016-12-06T11:38:40.953Z,1046.05
2016-12-06T11:39:40.943Z,1046.07
2016-12-06T11:40:40.932Z,1046.07
2016-12-06T11:41:40.918Z,1046.07
2016-12-06T11:42:40.909Z,1046.08
2016-12-06T11:43:40.896Z,1046.03
2016-12-06T11:44:40.885Z,1046.01
2016-12-06T11:45:40.874Z,1046.05
2016-12-06T11:46:40.862Z,1046.06
2016-12-06T11:47:40.853Z,1046.04
2016-12-06T11:48:40.841Z,1046.09
2016-12-06T11:49:40.829Z,1046.1
2016-12-06T11:50:40.819Z,1046.11
2016-12-06T11:51:40.807Z,1046.14
2016-12-06T11:52:40.796Z,1046.17
2016-12-06T11:53:40.784Z,1046.14
2016-12-06T11:54:40.773Z,1046.11
2016-12-06T11:55:40.761Z,1046.09
2016-12-06T11:56:40.750Z,1046.04
2016-12-06T11:57:40.740Z,1046.06
2016-12-06T11:58:40.729Z,1046.08
2016-12-06T11:59:40.715Z,1046.13
2016-12-06T12:00:40.706Z,1046.17
2016-12-06T12:01:40.692Z,1046.18
2016-12-06T12:02:40.681Z,1046.15
2016-12-06T12:03:40.669Z,1046.14
2016-12-06T12:04:40.658Z,1046.16
2016-12-06T12:05:40.648Z,1046.13
2016-12-06T12:06:40.636Z,1046.12
2016-12-06T12:07:40.626Z,1046.14
2016-12-06T12:08:40.613Z,1046.2